Terminal Aerodrome Forecast
Issued by NWS

Home | Current Version | Previous Version | Graphics & Text | Print | Product List | Glossary On
Versions: 1 2 3 4 5 6 7 8 9 10 11 12 13 14 15 16 17
000
FTUS43 KMPX 301100
TAFAXN
TAF
KAXN 301138Z 3012/3112 35007KT P6SM SCT004 OVC007
     FM301600 36006KT P6SM BKN010 OVC020
     FM302100 VRB03KT P6SM SCT020 BKN040
     FM310000 14006KT P6SM FEW250
     FM310900 15012KT P6SM BKN150=

USA.gov is the U.S. government's official web portal to all federal, state and local government web resources and services.